Time;durP1;ratioP1;P1;durP2;ratioP2;P2;SDS_P1;SDS_P2;PMS_P1;PMS_P2;Temp;Humidity;BMP_temperature;BMP_pressure;BME280_temperature;BME280_humidity;BME280_pressure;Samples;Min_cycle;Max_cycle;Signal;HPM_P1;HPM_P2
2023/08/04 00:00:29;;;;;;;7.70;4.47;;;;;;;15.49;66.99;99965.69;4999897;28;20046;-41
2023/08/04 00:02:57;;;;;;;5.35;3.58;;;;;;;15.50;66.99;99970.06;5004333;28;20409;-46
2023/08/04 00:05:24;;;;;;;7.85;4.03;;;;;;;15.49;67.20;99965.69;5004459;28;20502;-42
2023/08/04 00:07:51;;;;;;;6.70;4.95;;;;;;;15.50;67.62;99965.66;5005204;28;20057;-40
2023/08/04 00:10:18;;;;;;;6.22;3.78;;;;;;;15.50;67.32;99970.06;5005689;28;20096;-39
2023/08/04 00:12:45;;;;;;;6.55;4.22;;;;;;;15.50;67.52;99975.28;5004826;28;21439;-37
2023/08/04 00:15:12;;;;;;;6.85;3.90;;;;;;;15.51;67.13;99976.97;5004924;28;20053;-40
2023/08/04 00:17:39;;;;;;;8.68;3.88;;;;;;;15.52;67.32;99973.47;5005727;28;20728;-39
2023/08/04 00:20:10;;;;;;;9.98;3.83;;;;;;;15.52;67.63;99973.47;5006357;28;20149;-42
2023/08/04 00:22:38;;;;;;;6.85;4.38;;;;;;;15.52;66.96;99978.69;5006364;28;20048;-41
2023/08/04 00:25:06;;;;;;;11.02;4.57;;;;;;;15.50;67.48;99972.66;5004802;28;20112;-44
2023/08/04 00:27:33;;;;;;;7.63;4.15;;;;;;;15.48;67.32;99977.03;5002960;28;20549;-43
2023/08/04 00:29:59;;;;;;;7.97;3.92;;;;;;;15.46;67.69;99974.47;5003757;28;20054;-41
2023/08/04 00:32:27;;;;;;;7.85;4.43;;;;;;;15.48;67.52;99971.81;5003478;28;20042;-50
2023/08/04 00:34:54;;;;;;;6.70;4.55;;;;;;;15.48;68.17;99971.81;4999081;28;20045;-48
2023/08/04 00:37:20;;;;;;;7.93;4.35;;;;;;;15.48;68.02;99971.81;5000512;28;20050;-40
2023/08/04 00:39:47;;;;;;;7.72;3.58;;;;;;;15.47;67.86;99975.34;5006562;28;20057;-49
2023/08/04 00:42:14;;;;;;;8.68;5.90;;;;;;;15.49;67.97;99976.13;5006726;28;20513;-42
2023/08/04 00:44:40;;;;;;;5.88;4.35;;;;;;;15.46;67.96;99977.06;5004299;28;20049;-44
2023/08/04 00:47:07;;;;;;;7.13;4.03;;;;;;;15.47;68.05;99972.72;5005306;28;20046;-47
2023/08/04 00:49:35;;;;;;;7.35;3.90;;;;;;;15.47;67.73;99980.56;5003659;28;20052;-43
2023/08/04 00:52:02;;;;;;;11.48;4.00;;;;;;;15.46;68.21;99984.91;5004885;28;20045;-41
2023/08/04 00:54:28;;;;;;;7.63;4.18;;;;;;;15.45;67.99;99990.16;5006839;28;20045;-43
2023/08/04 00:56:56;;;;;;;7.50;4.00;;;;;;;15.44;68.12;99981.50;5007368;28;20054;-45
2023/08/04 00:59:23;;;;;;;8.63;4.10;;;;;;;15.45;68.41;99993.63;5006776;28;20053;-50
2023/08/04 01:01:50;;;;;;;7.50;2.85;;;;;;;15.44;68.23;99980.63;5008924;28;20459;-42
2023/08/04 01:04:18;;;;;;;7.93;4.00;;;;;;;15.45;68.69;99987.56;5008190;28;20108;-46
2023/08/04 01:09:39;;;;;;;8.02;3.00;;;;;;;15.42;68.56;99989.34;5016753;28;20941;-41
2023/08/04 01:12:14;;;;;;;7.70;2.80;;;;;;;15.41;69.10;99982.41;5000337;28;20046;-41
2023/08/04 01:14:44;;;;;;;7.53;3.20;;;;;;;15.42;69.06;99986.75;4998740;28;20048;-41
2023/08/04 01:17:31;;;;;;;7.47;2.92;;;;;;;15.35;69.55;99993.00;5000282;28;20042;-40
2023/08/04 01:19:58;;;;;;;9.45;2.60;;;;;;;15.40;69.73;99985.91;4999393;28;20054;-45
2023/08/04 01:22:26;;;;;;;9.38;3.78;;;;;;;15.40;69.79;99985.91;5000310;28;20459;-41
2023/08/04 01:24:54;;;;;;;7.53;2.95;;;;;;;15.39;69.69;99989.44;4999188;28;20085;-43
2023/08/04 01:27:29;;;;;;;7.03;3.08;;;;;;;15.41;69.68;99992.84;5000538;28;20058;-43
2023/08/04 01:29:58;;;;;;;12.95;2.85;;;;;;;15.41;69.72;99998.06;5002053;28;20053;-43
2023/08/04 01:32:24;;;;;;;18.02;3.75;;;;;;;15.40;69.35;99995.50;4997222;28;20049;-47
2023/08/04 01:34:52;;;;;;;9.48;3.63;;;;;;;15.41;69.97;99998.06;5001370;28;20046;-47
2023/08/04 01:37:19;;;;;;;11.43;3.25;;;;;;;15.40;70.25;99998.97;5000778;28;20089;-45
2023/08/04 01:39:45;;;;;;;10.48;2.72;;;;;;;15.41;69.80;100003.28;5000777;28;20093;-43
2023/08/04 01:42:12;;;;;;;11.02;3.28;;;;;;;15.42;70.09;99996.31;4999140;28;20120;-43
2023/08/04 01:44:39;;;;;;;13.57;4.03;;;;;;;15.43;70.05;99995.41;5002799;28;20042;-46
2023/08/04 01:47:07;;;;;;;12.70;3.85;;;;;;;15.42;70.22;99998.94;4998859;28;20053;-43
2023/08/04 01:49:34;;;;;;;14.55;4.78;;;;;;;15.42;70.03;99994.56;4999258;28;20405;-44
2023/08/04 01:52:02;;;;;;;9.65;2.88;;;;;;;15.42;70.27;99998.94;4987558;28;20053;-47
2023/08/04 01:54:29;;;;;;;12.77;3.72;;;;;;;15.44;70.73;100006.72;4999470;28;20054;-42
2023/08/04 01:56:55;;;;;;;15.00;3.50;;;;;;;15.41;70.89;99998.06;4998613;28;20510;-41
2023/08/04 01:59:22;;;;;;;13.75;3.67;;;;;;;15.39;70.50;100005.09;4998633;28;20054;-44
2023/08/04 02:01:49;;;;;;;12.02;3.97;;;;;;;15.40;70.76;100005.94;5000530;28;20046;-47
2023/08/04 02:04:18;;;;;;;10.88;3.75;;;;;;;15.39;71.30;100005.09;5000216;28;20053;-42
2023/08/04 02:06:44;;;;;;;10.95;3.10;;;;;;;15.38;71.13;100003.38;5001389;28;20718;-44
2023/08/04 02:09:12;;;;;;;13.88;4.00;;;;;;;15.37;70.94;100012.06;5000977;28;20066;-48
2023/08/04 02:11:38;;;;;;;9.70;3.88;;;;;;;15.37;71.24;100012.06;5001772;28;20045;-45
2023/08/04 02:14:05;;;;;;;11.27;4.03;;;;;;;15.38;71.16;100012.94;4998058;28;20567;-46
2023/08/04 02:16:32;;;;;;;8.35;4.07;;;;;;;15.37;71.08;100012.06;5001505;28;20046;-42
2023/08/04 02:19:03;;;;;;;9.90;4.28;;;;;;;15.38;71.57;100013.81;4998951;28;20050;-41
2023/08/04 02:21:30;;;;;;;11.82;3.47;;;;;;;15.36;71.35;100010.38;4988764;28;20049;-47
2023/08/04 02:23:57;;;;;;;8.98;4.00;;;;;;;15.37;71.67;100016.47;4987135;28;20054;-44
2023/08/04 02:26:24;;;;;;;15.88;4.10;;;;;;;15.36;71.52;100019.94;4988996;28;20058;-45
2023/08/04 02:28:52;;;;;;;12.95;4.18;;;;;;;15.35;71.69;100021.72;4989792;28;20449;-44
2023/08/04 02:31:20;;;;;;;15.48;4.68;;;;;;;15.34;72.11;100022.59;4989254;28;20057;-42
2023/08/04 02:33:47;;;;;;;15.48;4.65;;;;;;;15.34;72.03;100027.81;4987405;28;20137;-43
2023/08/04 02:36:14;;;;;;;12.73;3.30;;;;;;;15.32;72.04;100020.91;4987661;28;20150;-42
2023/08/04 02:38:41;;;;;;;13.48;4.40;;;;;;;15.33;71.61;100020.88;4983518;28;20096;-43
2023/08/04 02:41:09;;;;;;;9.63;4.10;;;;;;;15.33;72.41;100020.03;4986101;28;20049;-41
2023/08/04 02:43:36;;;;;;;11.43;4.70;;;;;;;15.33;72.24;100017.41;4982062;28;20054;-42
2023/08/04 02:46:04;;;;;;;16.05;5.20;;;;;;;15.32;72.36;100024.38;4987477;28;20447;-46
2023/08/04 02:48:31;;;;;;;11.82;4.50;;;;;;;15.29;73.40;100025.31;4987526;28;20046;-41
2023/08/04 02:51:04;;;;;;;13.00;4.65;;;;;;;15.30;72.26;100020.94;4987958;28;20697;-41
2023/08/04 02:53:32;;;;;;;11.27;4.68;;;;;;;15.32;73.22;100027.00;4987183;28;20477;-46
2023/08/04 02:55:58;;;;;;;9.60;3.75;;;;;;;15.32;72.77;100028.72;4989300;28;20053;-42
2023/08/04 02:58:26;;;;;;;11.43;3.72;;;;;;;15.32;72.54;100029.59;4986298;28;20129;-42
2023/08/04 03:00:53;;;;;;;15.10;4.47;;;;;;;15.33;72.52;100030.47;4987182;28;20042;-49
2023/08/04 03:03:20;;;;;;;13.35;5.05;;;;;;;15.33;72.85;100036.53;4985929;28;20042;-43
2023/08/04 03:05:47;;;;;;;11.43;4.32;;;;;;;15.34;73.08;100043.47;4984660;28;20047;-50
2023/08/04 03:08:14;;;;;;;16.65;5.03;;;;;;;15.34;73.11;100038.25;4985177;28;20039;-41
2023/08/04 03:10:41;;;;;;;13.52;4.45;;;;;;;15.35;73.32;100045.19;4986654;28;20050;-47
2023/08/04 03:13:09;;;;;;;13.10;4.63;;;;;;;15.36;73.24;100052.13;4983011;28;20042;-40
2023/08/04 03:15:36;;;;;;;14.55;4.78;;;;;;;15.37;73.48;100053.81;4984813;28;20402;-38
2023/08/04 03:18:03;;;;;;;12.50;4.63;;;;;;;15.37;73.07;100043.38;4985770;28;20398;-46
2023/08/04 03:20:36;;;;;;;15.48;4.20;;;;;;;15.39;73.32;100040.75;4986517;28;20084;-48
2023/08/04 03:23:04;;;;;;;14.05;4.30;;;;;;;15.41;73.18;100050.25;4980369;28;20060;-44
2023/08/04 03:25:32;;;;;;;15.93;3.97;;;;;;;15.40;73.24;100043.31;4984090;28;20050;-47
2023/08/04 03:27:59;;;;;;;12.30;4.40;;;;;;;15.40;73.72;100048.53;4983443;28;20042;-49
2023/08/04 03:30:26;;;;;;;13.55;4.22;;;;;;;15.38;73.24;100039.91;4979699;28;20052;-46
2023/08/04 03:32:53;;;;;;;12.07;4.07;;;;;;;15.37;73.48;100038.16;4981204;28;20050;-44
2023/08/04 03:35:20;;;;;;;15.77;4.45;;;;;;;15.40;73.61;100045.94;4985275;28;20137;-43
2023/08/04 03:37:47;;;;;;;8.85;4.13;;;;;;;15.40;73.25;100045.94;4984038;28;20049;-44
2023/08/04 03:40:14;;;;;;;12.80;3.70;;;;;;;15.37;73.77;100048.59;4982627;28;20466;-44
2023/08/04 03:42:41;;;;;;;13.05;3.95;;;;;;;15.39;73.25;100046.84;4986041;28;20595;-44
2023/08/04 03:45:08;;;;;;;11.05;3.78;;;;;;;15.36;73.90;100052.13;4984975;28;20392;-48
2023/08/04 03:47:35;;;;;;;10.63;3.65;;;;;;;15.36;73.61;100052.13;4981459;28;20049;-41
2023/08/04 03:50:03;;;;;;;18.65;4.05;;;;;;;15.37;73.77;100060.81;4983648;28;20046;-44
2023/08/04 03:52:29;;;;;;;13.70;3.97;;;;;;;15.36;73.09;100062.56;4984976;28;20054;-45
2023/08/04 03:54:56;;;;;;;9.70;4.10;;;;;;;15.38;73.11;100060.78;4987111;28;20050;-47
2023/08/04 03:57:23;;;;;;;14.65;3.67;;;;;;;15.39;73.18;100065.09;4983733;28;20058;-43
2023/08/04 03:59:51;;;;;;;11.55;3.95;;;;;;;15.37;72.86;100066.88;4983640;28;20046;-45
2023/08/04 04:02:18;;;;;;;13.13;3.70;;;;;;;15.36;73.11;100073.00;4985289;28;20050;-46
2023/08/04 04:04:45;;;;;;;10.38;3.30;;;;;;;15.36;73.34;100070.38;4985078;28;20072;-44
2023/08/04 04:07:11;;;;;;;9.80;4.07;;;;;;;15.37;73.03;100079.91;4985273;28;20057;-45
2023/08/04 04:09:38;;;;;;;10.35;3.97;;;;;;;15.36;72.95;100082.56;4986685;28;20050;-41
2023/08/04 04:12:05;;;;;;;11.63;4.22;;;;;;;15.33;73.58;100086.09;4982760;28;20050;-42
2023/08/04 04:14:32;;;;;;;13.18;3.85;;;;;;;15.31;73.14;100084.44;4985449;28;20049;-42
2023/08/04 04:16:58;;;;;;;13.82;3.78;;;;;;;15.27;73.59;100083.66;4986921;28;20050;-44
2023/08/04 04:19:25;;;;;;;10.02;3.92;;;;;;;15.26;72.97;100082.78;4984806;28;20767;-43
2023/08/04 04:21:52;;;;;;;11.90;3.35;;;;;;;15.23;73.50;100082.84;4986736;28;20056;-39
2023/08/04 04:24:18;;;;;;;10.82;3.95;;;;;;;15.24;73.01;100081.09;4986220;28;20548;-41
2023/08/04 04:26:45;;;;;;;10.95;4.45;;;;;;;15.24;73.22;100083.72;4982584;28;20485;-46
2023/08/04 04:29:12;;;;;;;13.55;3.72;;;;;;;15.26;73.12;100092.34;4984701;28;20039;-48
2023/08/04 04:31:38;;;;;;;11.50;3.47;;;;;;;15.24;73.39;100099.38;4980831;28;20073;-48
2023/08/04 04:34:05;;;;;;;10.73;3.63;;;;;;;15.24;73.65;100094.16;4980863;28;20054;-42
2023/08/04 04:36:31;;;;;;;12.93;3.75;;;;;;;15.24;73.25;100101.97;4982141;28;20081;-48
2023/08/04 04:39:00;;;;;;;12.45;3.72;;;;;;;15.27;73.57;100109.75;4983487;28;20050;-46
2023/08/04 04:41:27;;;;;;;10.55;3.38;;;;;;;15.27;73.82;100107.13;4981234;28;20046;-42
2023/08/04 04:43:54;;;;;;;9.38;3.78;;;;;;;15.28;73.05;100111.44;4986402;28;20096;-45
2023/08/04 04:46:21;;;;;;;10.35;3.58;;;;;;;15.28;72.95;100114.06;4981910;28;20058;-44
2023/08/04 04:48:47;;;;;;;12.13;4.05;;;;;;;15.26;73.16;100115.81;4981185;28;20049;-43
2023/08/04 04:51:14;;;;;;;10.15;3.60;;;;;;;15.26;74.01;100108.00;4984714;28;20791;-48
2023/08/04 04:53:40;;;;;;;12.05;3.28;;;;;;;15.26;73.56;100108.00;4986886;28;20050;-48
2023/08/04 04:56:07;;;;;;;11.10;3.42;;;;;;;15.25;73.35;100101.06;4984190;28;20042;-39
2023/08/04 04:58:34;;;;;;;10.93;3.78;;;;;;;15.22;73.03;100102.00;4982480;28;20064;-44
2023/08/04 05:01:02;;;;;;;14.23;3.42;;;;;;;15.19;73.36;100107.28;4984905;28;20050;-38
2023/08/04 05:03:29;;;;;;;9.13;3.13;;;;;;;15.19;73.46;100101.22;4978215;28;20056;-41
2023/08/04 05:05:56;;;;;;;11.15;3.63;;;;;;;15.20;73.37;100108.16;4985501;28;20061;-43
2023/08/04 05:08:23;;;;;;;16.42;3.63;;;;;;;15.22;73.35;100111.56;4985107;28;20117;-44
2023/08/04 05:10:51;;;;;;;10.63;3.30;;;;;;;15.26;73.50;100118.44;4987273;28;20050;-46
2023/08/04 05:13:18;;;;;;;14.27;3.70;;;;;;;15.24;73.27;100110.66;4985743;28;20050;-44
2023/08/04 05:15:47;;;;;;;9.20;3.55;;;;;;;15.29;73.21;100114.03;4986831;28;20502;-44
2023/08/04 05:18:15;;;;;;;12.20;3.45;;;;;;;15.31;73.61;100116.59;4985173;28;20542;-50
2023/08/04 05:20:45;;;;;;;10.05;3.67;;;;;;;15.31;73.33;100119.22;4986876;28;20066;-47
2023/08/04 05:23:13;;;;;;;8.75;2.97;;;;;;;15.36;73.50;100125.19;4985559;28;20058;-46
2023/08/04 05:25:40;;;;;;;8.77;3.25;;;;;;;15.39;73.03;100130.34;4983920;28;20054;-43
2023/08/04 05:28:24;;;;;;;13.55;3.45;;;;;;;15.37;73.36;100126.91;4982116;28;20133;-43
2023/08/04 05:30:58;;;;;;;7.32;2.83;;;;;;;15.44;73.32;100134.59;4981966;28;20066;-42
2023/08/04 05:33:26;;;;;;;14.00;3.08;;;;;;;15.46;72.76;100125.84;4984911;28;20057;-40
2023/08/04 05:35:53;;;;;;;13.65;3.40;;;;;;;15.51;72.96;100138.81;4968112;28;20046;-49
2023/08/04 05:38:21;;;;;;;9.48;3.50;;;;;;;15.52;72.87;100135.28;4984316;28;20050;-44
2023/08/04 05:40:49;;;;;;;6.05;3.45;;;;;;;15.57;73.61;100145.66;4985011;28;20050;-47
2023/08/04 05:43:16;;;;;;;16.20;3.88;;;;;;;15.61;73.41;100139.47;4985695;28;20066;-42
2023/08/04 05:45:45;;;;;;;14.50;3.05;;;;;;;15.67;72.71;100148.00;4979157;28;20046;-45
2023/08/04 05:48:11;;;;;;;10.98;3.30;;;;;;;15.70;72.93;100148.84;4988951;28;20505;-46
2023/08/04 05:50:38;;;;;;;14.20;3.35;;;;;;;15.72;73.15;100152.25;4978264;28;20042;-47
2023/08/04 05:53:05;;;;;;;10.38;3.22;;;;;;;15.76;73.08;100153.91;4985098;28;20081;-48
2023/08/04 05:55:32;;;;;;;8.98;3.63;;;;;;;15.82;72.89;100156.41;4988069;28;20042;-43
2023/08/04 05:57:59;;;;;;;12.35;3.15;;;;;;;15.87;73.25;100161.53;4988808;28;20046;-43
2023/08/04 06:00:25;;;;;;;9.50;2.63;;;;;;;15.91;72.83;100168.38;4987758;28;20054;-47
2023/08/04 06:02:52;;;;;;;9.70;3.03;;;;;;;15.93;72.57;100170.06;4984557;28;20108;-42
2023/08/04 06:05:20;;;;;;;15.30;3.22;;;;;;;15.94;72.91;100170.91;4987406;28;20141;-42
2023/08/04 06:07:48;;;;;;;8.43;3.15;;;;;;;15.98;72.38;100179.59;4988313;28;20233;-48
2023/08/04 06:10:17;;;;;;;11.82;2.83;;;;;;;16.00;72.51;100178.66;4982051;28;20054;-43
2023/08/04 06:12:44;;;;;;;;;;;;;;;15.85;72.38;100185.06;4985612;28;20045;-42
2023/08/04 06:15:12;;;;;;;7.30;3.13;;;;;;;15.95;72.25;100185.75;4987596;28;19929;-47
2023/08/04 06:17:39;;;;;;;7.80;2.60;;;;;;;15.93;72.06;100179.66;4986948;28;20054;-47
2023/08/04 06:20:07;;;;;;;5.78;2.78;;;;;;;15.90;72.21;100193.63;4982747;28;20045;-48
2023/08/04 06:22:34;;;;;;;7.13;2.80;;;;;;;15.87;71.81;100198.09;4986225;28;20085;-40
2023/08/04 06:25:02;;;;;;;8.90;3.15;;;;;;;15.88;72.56;100199.78;4985895;28;20063;-47
2023/08/04 06:27:29;;;;;;;11.60;3.50;;;;;;;15.86;71.89;100198.97;4986664;28;20078;-43
2023/08/04 06:29:58;;;;;;;5.80;2.75;;;;;;;15.81;72.46;100206.91;4988205;28;20135;-42
2023/08/04 06:32:26;;;;;;;9.00;3.20;;;;;;;15.83;72.78;100207.72;4988842;28;20505;-46
2023/08/04 06:34:52;;;;;;;8.07;2.67;;;;;;;15.87;72.08;100203.31;4987337;28;20069;-46
2023/08/04 06:37:19;;;;;;;12.48;3.42;;;;;;;15.87;72.34;100209.38;4991739;28;20046;-47
2023/08/04 06:39:46;;;;;;;8.68;3.30;;;;;;;15.90;72.27;100213.66;4985482;28;20073;-45
2023/08/04 06:42:12;;;;;;;12.63;3.25;;;;;;;15.91;71.59;100213.63;4978879;28;20046;-43
2023/08/04 06:44:39;;;;;;;9.13;3.28;;;;;;;15.92;72.18;100217.13;4984468;28;20395;-44
2023/08/04 06:47:06;;;;;;;9.30;3.00;;;;;;;15.93;71.68;100219.69;4980982;28;20126;-40
2023/08/04 06:49:34;;;;;;;9.65;3.60;;;;;;;15.97;72.27;100228.34;4987956;28;20056;-47
2023/08/04 06:52:02;;;;;;;8.20;2.85;;;;;;;16.00;72.00;100224.78;4985798;28;20043;-49
2023/08/04 06:54:29;;;;;;;11.27;2.70;;;;;;;16.00;72.43;100235.25;4981421;28;20053;-45
2023/08/04 06:56:56;;;;;;;10.23;3.55;;;;;;;16.05;72.02;100234.25;4984461;28;20137;-50
2023/08/04 06:59:22;;;;;;;10.98;2.75;;;;;;;16.13;71.91;100233.22;4981237;28;20599;-43
2023/08/04 07:01:49;;;;;;;6.97;2.92;;;;;;;16.22;71.90;100240.00;4981631;28;20058;-44
2023/08/04 07:04:17;;;;;;;7.47;3.08;;;;;;;16.31;72.19;100250.22;4979539;28;20063;-46
2023/08/04 07:06:43;;;;;;;6.65;2.47;;;;;;;16.42;71.35;100240.38;4984721;28;20432;-43
2023/08/04 07:09:10;;;;;;;7.82;3.00;;;;;;;16.59;71.54;100246.97;4986194;28;20051;-47
2023/08/04 07:11:37;;;;;;;10.20;3.03;;;;;;;16.89;71.60;100247.06;4977385;28;20510;-43
2023/08/04 07:14:04;;;;;;;5.20;2.60;;;;;;;17.05;71.47;100236.19;4985458;28;20042;-48
2023/08/04 07:16:30;;;;;;;9.07;2.40;;;;;;;17.13;70.83;100238.66;4984992;28;20046;-46
2023/08/04 07:18:57;;;;;;;8.55;2.75;;;;;;;17.18;70.87;100248.09;4981676;28;20071;-48
2023/08/04 07:21:23;;;;;;;10.43;2.40;;;;;;;17.23;70.34;100244.50;4982428;28;20050;-46
2023/08/04 07:23:50;;;;;;;5.82;1.98;;;;;;;17.30;69.66;100264.38;4981864;28;20047;-48
2023/08/04 07:26:17;;;;;;;7.68;2.70;;;;;;;17.37;70.17;100247.59;4980775;28;20847;-44
2023/08/04 07:28:44;;;;;;;6.80;2.67;;;;;;;17.55;70.03;100261.06;4982416;28;20068;-46
2023/08/04 07:31:10;;;;;;;5.68;3.15;;;;;;;17.89;69.42;100260.06;4984420;28;20050;-44
2023/08/04 07:33:38;;;;;;;7.88;2.85;;;;;;;18.33;69.71;100253.53;4984974;28;20050;-46
2023/08/04 07:36:05;;;;;;;5.13;1.80;;;;;;;18.69;68.87;100244.50;4984518;28;20645;-45
2023/08/04 07:38:32;;;;;;;6.15;2.63;;;;;;;19.06;68.31;100248.53;4983054;28;20050;-47
2023/08/04 07:40:59;;;;;;;9.52;2.80;;;;;;;19.49;67.08;100251.38;4985206;28;20050;-42
2023/08/04 07:43:26;;;;;;;4.93;2.85;;;;;;;19.78;66.50;100246.81;4981868;28;20070;-45
2023/08/04 07:45:54;;;;;;;6.70;2.50;;;;;;;19.92;65.28;100248.03;4982729;28;20065;-46
2023/08/04 07:48:22;;;;;;;4.35;2.40;;;;;;;19.80;65.12;100251.16;4985877;28;20082;-43
2023/08/04 07:50:50;;;;;;;8.15;2.50;;;;;;;19.85;64.96;100247.44;4983407;28;20061;-45
2023/08/04 07:53:17;;;;;;;7.13;2.25;;;;;;;19.96;64.53;100244.38;4982221;28;20586;-51
2023/08/04 07:56:00;;;;;;;5.10;2.10;;;;;;;20.08;63.87;100253.59;4980311;28;20058;-49
2023/08/04 07:58:27;;;;;;;6.47;2.47;;;;;;;20.07;63.63;100246.63;4978619;28;20093;-49
2023/08/04 08:00:53;;;;;;;5.13;2.22;;;;;;;19.93;63.91;100255.03;4975121;28;20050;-46
2023/08/04 08:03:20;;;;;;;5.38;2.22;;;;;;;19.78;63.62;100251.19;4976701;28;20058;-48
2023/08/04 08:05:47;;;;;;;5.60;2.15;;;;;;;19.61;63.73;100259.72;4979137;28;20105;-51
2023/08/04 08:08:17;;;;;;;9.23;2.47;;;;;;;19.54;64.08;100264.34;4977040;28;20947;-40
2023/08/04 08:10:43;;;;;;;5.70;2.60;;;;;;;19.53;64.04;100263.47;4978410;28;20046;-42
2023/08/04 08:13:10;;;;;;;5.82;2.75;;;;;;;19.52;64.24;100267.03;4978107;28;20042;-51
2023/08/04 08:15:37;;;;;;;6.85;2.53;;;;;;;19.56;64.33;100266.91;4979610;28;20054;-43
2023/08/04 08:18:03;;;;;;;5.40;2.53;;;;;;;19.60;63.86;100277.28;4979762;28;20046;-48
2023/08/04 08:20:30;;;;;;;8.45;2.55;;;;;;;19.60;63.96;100274.66;4979549;28;20058;-48
2023/08/04 08:22:57;;;;;;;3.95;2.42;;;;;;;19.60;63.82;100268.53;4982682;28;20046;-46
2023/08/04 08:25:24;;;;;;;5.13;2.38;;;;;;;19.56;63.70;100287.94;4983396;28;20050;-44
2023/08/04 08:27:51;;;;;;;6.28;2.65;;;;;;;19.53;63.28;100284.50;4983243;28;20495;-43
2023/08/04 08:30:18;;;;;;;14.23;3.35;;;;;;;19.54;63.54;100293.25;4983871;28;20077;-46
2023/08/04 08:32:45;;;;;;;5.30;3.05;;;;;;;19.50;63.76;100295.13;4982878;28;20050;-49
2023/08/04 08:35:11;;;;;;;6.97;2.40;;;;;;;19.47;63.42;100297.88;4982147;28;20469;-40
2023/08/04 08:37:38;;;;;;;8.05;3.28;;;;;;;19.44;62.98;100300.59;4985441;28;20073;-44
2023/08/04 08:40:05;;;;;;;5.60;2.47;;;;;;;19.40;63.35;100306.88;4985112;28;20070;-47
2023/08/04 08:42:33;;;;;;;5.28;2.47;;;;;;;19.36;63.71;100307.91;4982878;28;20046;-42
2023/08/04 08:45:01;;;;;;;8.18;2.42;;;;;;;19.28;63.48;100310.78;4985290;28;20046;-47
2023/08/04 08:47:35;;;;;;;4.90;1.80;;;;;;;19.20;63.10;100305.81;4983676;28;20181;-41
2023/08/04 08:50:05;;;;;;;3.83;2.10;;;;;;;19.07;63.45;100312.38;4984975;28;20082;-44
2023/08/04 08:52:39;;;;;;;4.22;2.08;;;;;;;19.00;63.33;100311.72;4977084;28;20133;-45
2023/08/04 08:55:07;;;;;;;4.55;2.10;;;;;;;18.93;63.71;100316.31;4985494;28;20077;-44
2023/08/04 08:57:34;;;;;;;6.55;1.92;;;;;;;18.88;63.40;100319.09;4979886;28;20549;-46
2023/08/04 09:00:04;;;;;;;5.13;2.03;;;;;;;18.86;63.74;100328.78;4979652;28;20042;-43
2023/08/04 09:02:30;;;;;;;3.63;2.03;;;;;;;18.84;63.70;100327.97;4964008;28;20133;-46
2023/08/04 09:04:59;;;;;;;6.72;1.85;;;;;;;18.83;63.91;100330.63;4982646;28;20042;-44
2023/08/04 09:07:29;;;;;;;4.97;1.90;;;;;;;18.80;63.98;100330.72;4982489;28;20142;-51
2023/08/04 09:09:55;;;;;;;3.15;1.50;;;;;;;18.77;64.06;100333.47;4981907;28;22489;-46
2023/08/04 09:12:25;;;;;;;6.88;2.38;;;;;;;18.78;63.86;100337.81;4977777;28;20053;-46
2023/08/04 09:14:54;;;;;;;6.53;1.92;;;;;;;18.79;64.29;100329.03;4979015;28;20046;-45
2023/08/04 09:17:39;;;;;;;6.00;2.10;;;;;;;18.80;64.06;100328.09;4981433;28;20057;-47
2023/08/04 09:20:07;;;;;;;3.80;2.17;;;;;;;18.78;64.08;100332.56;4979966;28;20121;-47
2023/08/04 09:22:41;;;;;;;6.20;2.20;;;;;;;18.88;64.18;100339.22;4981352;28;20137;-44
2023/08/04 09:25:08;;;;;;;6.97;2.65;;;;;;;18.94;64.02;100341.63;4978700;28;20050;-49
2023/08/04 09:27:38;;;;;;;3.58;2.08;;;;;;;18.98;63.59;100338.00;4978821;28;20046;-49
2023/08/04 09:30:07;;;;;;;5.35;1.90;;;;;;;18.99;63.77;100341.50;4986736;28;20042;-46
2023/08/04 09:32:42;;;;;;;6.22;1.88;;;;;;;18.96;63.37;100338.97;4980376;28;20533;-46
2023/08/04 09:35:10;;;;;;;3.45;2.00;;;;;;;18.96;63.33;100339.84;4982141;28;20093;-44
2023/08/04 09:37:38;;;;;;;4.00;2.22;;;;;;;18.96;63.41;100341.59;4990043;28;20481;-52
2023/08/04 09:40:16;;;;;;;5.28;2.22;;;;;;;18.86;63.22;100347.16;4970279;28;20046;-47
2023/08/04 09:42:44;;;;;;;3.53;1.80;;;;;;;18.81;63.11;100345.59;4982946;28;20383;-47
2023/08/04 09:45:14;;;;;;;5.43;1.73;;;;;;;18.68;63.60;100358.25;4982975;28;20042;-43
2023/08/04 09:47:46;;;;;;;2.63;1.52;;;;;;;18.60;63.02;100355.84;4991320;28;20057;-43
2023/08/04 09:50:13;;;;;;;5.13;1.80;;;;;;;18.59;63.12;100351.50;4984951;28;20050;-49
2023/08/04 09:52:40;;;;;;;6.18;1.90;;;;;;;18.54;63.25;100356.88;4982941;28;20413;-47
2023/08/04 09:55:08;;;;;;;2.60;1.05;;;;;;;18.50;63.40;100350.91;4981774;28;20043;-48
2023/08/04 09:57:36;;;;;;;4.05;1.52;;;;;;;18.46;63.51;100351.91;4982419;28;20053;-47
2023/08/04 10:00:06;;;;;;;3.55;1.25;;;;;;;18.44;63.67;100351.06;4980241;28;20046;-51
2023/08/04 10:02:33;;;;;;;3.55;1.55;;;;;;;18.35;63.43;100352.22;4985361;28;20413;-47
2023/08/04 10:05:02;;;;;;;4.25;1.52;;;;;;;18.33;63.27;100347.91;4983350;28;20084;-50
2023/08/04 10:07:33;;;;;;;3.72;1.30;;;;;;;18.33;63.71;100347.91;4989059;28;20051;-49
2023/08/04 10:10:00;;;;;;;3.40;1.38;;;;;;;18.33;63.83;100350.53;4984194;28;20042;-48
2023/08/04 10:12:29;;;;;;;3.75;1.35;;;;;;;18.35;63.21;100351.38;4964367;28;20057;-46
2023/08/04 10:14:56;;;;;;;6.90;1.65;;;;;;;18.37;63.64;100354.78;4987314;28;20674;-41
2023/08/04 10:17:25;;;;;;;5.07;1.88;;;;;;;18.39;63.28;100353.00;4982295;28;20049;-44
2023/08/04 10:20:09;;;;;;;4.55;1.33;;;;;;;18.38;63.45;100356.53;4986265;28;20414;-41
2023/08/04 10:22:42;;;;;;;4.63;1.63;;;;;;;18.46;63.74;100349.28;4985501;28;20065;-47
2023/08/04 10:25:13;;;;;;;3.78;2.17;;;;;;;18.53;63.61;100355.19;4984099;28;20509;-46
2023/08/04 10:27:49;;;;;;;2.88;1.55;;;;;;;18.57;63.27;100359.44;4984354;28;20050;-43
2023/08/04 10:30:16;;;;;;;4.45;1.35;;;;;;;18.64;63.15;100362.72;4984339;28;20058;-45
2023/08/04 10:32:43;;;;;;;2.42;1.15;;;;;;;18.72;63.36;100358.09;4981772;28;20051;-49
2023/08/04 10:35:21;;;;;;;2.80;1.55;;;;;;;18.75;63.41;100360.59;4985923;28;20038;-46
2023/08/04 10:37:50;;;;;;;6.53;1.73;;;;;;;18.83;63.25;100356.88;4979242;28;20061;-44
2023/08/04 10:46:03;;;;;;;6.43;2.42;;;;;;;18.84;62.74;100363.84;5024559;27;20384;-46
2023/08/04 10:48:34;;;;;;;4.75;1.52;;;;;;;18.95;63.23;100364.34;5003446;28;20057;-46
2023/08/04 10:51:02;;;;;;;3.47;1.50;;;;;;;19.02;63.07;100354.53;5001525;28;20498;-46
2023/08/04 10:53:29;;;;;;;5.15;1.42;;;;;;;19.11;62.74;100356.00;5000558;28;20056;-42
2023/08/04 10:55:58;;;;;;;2.40;1.10;;;;;;;19.17;62.78;100363.66;5019882;28;20050;-40
2023/08/04 10:58:27;;;;;;;4.32;1.00;;;;;;;19.21;62.33;100361.78;5017450;28;20502;-42
2023/08/04 11:00:56;;;;;;;2.83;1.17;;;;;;;19.19;62.65;100361.88;5018552;28;20695;-50
2023/08/04 11:03:28;;;;;;;3.38;0.80;;;;;;;19.17;62.27;100374.19;5018817;28;20052;-46
2023/08/04 11:05:56;;;;;;;5.47;1.75;;;;;;;19.20;62.03;100371.44;5004602;28;20048;-42
2023/08/04 11:08:24;;;;;;;3.25;1.30;;;;;;;19.21;61.86;100383.66;5018775;28;20127;-40
2023/08/04 11:10:53;;;;;;;2.80;1.40;;;;;;;19.27;61.97;100378.22;5018003;28;20401;-41
2023/08/04 11:13:22;;;;;;;;;;;;;;;19.18;62.09;100382.91;5022338;28;20069;-45
2023/08/04 11:15:49;;;;;;;5.55;1.10;;;;;;;19.34;62.06;100378.00;5019614;28;19925;-44
2023/08/04 11:18:23;;;;;;;3.08;1.08;;;;;;;19.44;61.64;100375.91;5017810;28;20057;-42
2023/08/04 11:20:50;;;;;;;3.60;1.25;;;;;;;19.52;61.81;100379.97;5013655;28;20085;-42
2023/08/04 11:23:26;;;;;;;2.22;1.25;;;;;;;19.57;61.71;100378.97;5020937;28;20088;-45
2023/08/04 11:25:54;;;;;;;3.33;1.30;;;;;;;19.59;61.81;100379.78;5021772;28;20053;-46
2023/08/04 11:28:22;;;;;;;3.47;1.45;;;;;;;19.61;61.40;100376.19;4996385;28;20042;-43
2023/08/04 11:30:54;;;;;;;4.65;2.85;;;;;;;19.61;61.60;100381.44;5020573;28;20649;-46
2023/08/04 11:33:20;;;;;;;2.92;1.38;;;;;;;19.58;61.81;100391.19;5021962;28;20041;-46
2023/08/04 11:35:47;;;;;;;5.15;1.70;;;;;;;19.56;61.00;100393.03;5019545;28;20104;-50